Time;durP1;ratioP1;P1;durP2;ratioP2;P2;SDS_P1;SDS_P2;PMS_P1;PMS_P2;Temp;Humidity;BMP_temperature;BMP_pressure;BME280_temperature;BME280_humidity;BME280_pressure;Samples;Min_cycle;Max_cycle;Signal;HPM_P1;HPM_P2
2022/09/25 00:00:05;;;;;;;3.47;2.75;;;21.80;51.30;;;;;;20674285;28;20113;-75
2022/09/25 00:10:06;;;;;;;4.15;2.65;;;21.80;51.40;;;;;;20668636;28;20050;-75
2022/09/25 00:20:07;;;;;;;3.92;2.55;;;21.80;51.50;;;;;;20631731;28;20088;-74
2022/09/25 00:30:09;;;;;;;4.90;3.00;;;21.80;51.50;;;;;;20651586;28;20572;-76
2022/09/25 00:40:10;;;;;;;3.72;2.70;;;21.80;51.60;;;;;;20631850;28;20057;-76
2022/09/25 00:50:37;;;;;;;4.50;3.17;;;21.80;51.60;;;;;;20678750;28;20374;-75
2022/09/25 01:00:38;;;;;;;4.70;3.17;;;21.80;51.70;;;;;;20663333;28;20066;-75
2022/09/25 01:10:38;;;;;;;4.68;2.90;;;21.70;51.70;;;;;;20663032;28;20125;-74
2022/09/25 01:20:59;;;;;;;3.90;2.58;;;21.70;51.70;;;;;;20661755;28;20089;-75
2022/09/25 01:31:02;;;;;;;5.22;3.30;;;21.70;51.90;;;;;;20645989;28;20443;-74
2022/09/25 01:41:10;;;;;;;4.40;2.95;;;21.60;51.80;;;;;;21054835;22;20049;-75
2022/09/25 01:51:15;;;;;;;4.25;2.60;;;21.60;51.90;;;;;;20723509;28;20053;-75
2022/09/25 02:01:23;;;;;;;3.63;2.45;;;21.60;51.90;;;;;;20723567;28;20152;-75
2022/09/25 02:11:27;;;;;;;5.78;2.53;;;21.60;52.00;;;;;;20741160;28;20052;-75
2022/09/25 02:21:49;;;;;;;4.75;2.80;;;21.60;52.10;;;;;;20723141;28;20495;-75
2022/09/25 02:31:58;;;;;;;3.95;2.55;;;21.60;52.20;;;;;;20710663;28;20033;-75
2022/09/25 02:42:17;;;;;;;5.35;3.10;;;21.50;52.20;;;;;;20761836;28;20542;-74
2022/09/25 02:52:26;;;;;;;4.50;3.13;;;21.50;52.20;;;;;;20738353;28;20050;-76
2022/09/25 03:02:27;;;;;;;4.00;2.95;;;21.50;52.90;;;;;;20742336;28;20049;-76
2022/09/25 03:12:27;;;;;;;4.45;2.85;;;21.50;52.30;;;;;;20720785;28;20034;-75
2022/09/25 03:22:28;;;;;;;5.38;3.50;;;21.50;52.40;;;;;;20735457;28;20434;-77
2022/09/25 03:32:29;;;;;;;4.93;3.05;;;21.40;52.50;;;;;;20791067;28;20025;-76
2022/09/25 03:42:30;;;;;;;4.10;2.58;;;21.40;52.60;;;;;;20775194;28;20137;-76
2022/09/25 03:52:31;;;;;;;4.72;2.30;;;21.40;52.60;;;;;;20733845;28;20439;-75
2022/09/25 04:02:31;;;;;;;5.65;3.35;;;21.40;52.70;;;;;;20715412;28;20091;-76
2022/09/25 04:12:32;;;;;;;3.63;2.40;;;21.40;52.70;;;;;;20715278;28;20033;-76
2022/09/25 04:22:33;;;;;;;4.97;2.90;;;22.10;51.30;;;;;;20747704;28;20053;-76
2022/09/25 04:42:56;;;;;;;3.97;2.38;;;22.10;51.10;;;;;;20745736;28;20377;-77
2022/09/25 04:52:57;;;;;;;3.80;2.47;;;22.40;50.60;;;;;;20728588;28;20092;-75
2022/09/25 05:02:57;;;;;;;3.90;2.38;;;22.50;50.30;;;;;;20729686;28;20041;-76
2022/09/25 05:12:59;;;;;;;4.30;2.90;;;22.50;50.10;;;;;;20711202;28;20117;-75
2022/09/25 05:23:03;;;;;;;4.07;2.33;;;22.50;50.10;;;;;;20762223;28;20327;-74
2022/09/25 05:33:03;;;;;;;4.43;2.10;;;22.50;50.10;;;;;;20791025;28;20490;-75
2022/09/25 05:43:04;;;;;;;4.32;2.10;;;22.50;50.10;;;;;;20732998;28;20049;-76
2022/09/25 05:53:05;;;;;;;3.40;2.30;;;22.50;50.20;;;;;;20708488;28;20563;-74
2022/09/25 06:03:05;;;;;;;3.13;2.03;;;22.40;50.30;;;;;;20724409;28;20125;-75
2022/09/25 06:13:07;;;;;;;3.70;2.33;;;22.40;50.40;;;;;;20741111;28;20037;-76
2022/09/25 06:23:07;;;;;;;3.72;2.35;;;22.40;50.50;;;;;;20792427;28;20033;-75
2022/09/25 06:33:12;;;;;;;4.00;2.25;;;22.30;50.60;;;;;;20781409;28;20431;-76
2022/09/25 06:43:14;;;;;;;3.92;1.90;;;22.30;50.80;;;;;;20720952;28;20033;-79
2022/09/25 06:53:15;;;;;;;3.72;2.10;;;22.20;51.00;;;;;;20717053;28;20396;-74
2022/09/25 07:13:35;;;;;;;3.60;2.10;;;22.20;51.20;;;;;;20731748;28;20476;-76
2022/09/25 07:23:37;;;;;;;3.38;1.88;;;22.20;51.30;;;;;;20745625;28;20065;-74
2022/09/25 07:33:42;;;;;;;3.00;1.90;;;22.10;51.40;;;;;;20702690;28;20042;-77
2022/09/25 07:43:42;;;;;;;1.83;1.50;;;22.10;51.50;;;;;;20704045;28;20040;-76
2022/09/25 07:53:44;;;;;;;2.35;1.42;;;22.10;51.60;;;;;;20712028;28;20120;-75
2022/09/25 08:03:45;;;;;;;3.42;1.83;;;22.00;51.70;;;;;;20719332;28;20123;-77
2022/09/25 08:13:45;;;;;;;4.70;1.85;;;22.00;51.90;;;;;;20756027;28;20041;-79
2022/09/25 08:23:50;;;;;;;2.50;2.03;;;21.90;52.00;;;;;;20730572;28;20504;-80
2022/09/25 08:33:53;;;;;;;2.38;1.70;;;21.90;52.10;;;;;;20733527;28;20399;-79
2022/09/25 08:43:58;;;;;;;2.03;1.33;;;21.90;52.20;;;;;;20737215;28;20037;-79
2022/09/25 08:54:02;;;;;;;2.35;1.52;;;21.90;52.30;;;;;;20707419;28;20033;-79
2022/09/25 09:04:08;;;;;;;2.65;1.67;;;21.80;52.40;;;;;;20708700;28;20037;-77
2022/09/25 09:14:17;;;;;;;2.65;1.58;;;21.80;52.50;;;;;;20730427;28;20049;-78
2022/09/25 09:24:40;;;;;;;1.45;1.02;;;21.80;52.60;;;;;;20728785;28;20034;-78
2022/09/25 09:34:44;;;;;;;1.58;1.05;;;21.70;52.60;;;;;;20745591;28;20030;-77
2022/09/25 09:45:16;;;;;;;1.63;0.95;;;21.70;52.80;;;;;;20744002;28;20400;-78
2022/09/25 09:55:33;;;;;;;1.85;1.23;;;22.10;52.20;;;;;;20726203;28;20448;-77
2022/09/25 10:05:43;;;;;;;1.60;0.98;;;23.40;49.40;;;;;;20711440;28;20067;-74
2022/09/25 10:15:53;;;;;;;2.10;1.20;;;24.50;47.30;;;;;;20782111;28;20491;-74
2022/09/25 10:25:53;;;;;;;6.40;1.42;;;24.70;46.30;;;;;;20727310;28;20141;-80
2022/09/25 10:35:55;;;;;;;2.55;1.42;;;23.90;47.60;;;;;;20744246;28;20045;-78
2022/09/25 10:46:14;;;;;;;2.60;1.60;;;23.10;49.30;;;;;;20728912;28;20038;-76
2022/09/25 10:56:19;;;;;;;2.72;1.63;;;22.40;50.80;;;;;;20727219;28;20483;-79
2022/09/25 11:06:32;;;;;;;2.73;1.70;;;22.00;51.80;;;;;;20726140;28;20037;-77
2022/09/25 11:16:52;;;;;;;4.30;1.42;;;21.70;52.40;;;;;;20726757;28;20034;-76
2022/09/25 11:26:57;;;;;;;2.17;1.40;;;21.60;52.80;;;;;;20737186;28;20388;-76
2022/09/25 11:37:20;;;;;;;2.42;1.35;;;21.50;53.20;;;;;;20821323;28;20056;-78
2022/09/25 11:47:27;;;;;;;3.10;1.50;;;21.50;53.40;;;;;;20823371;28;20124;-77
2022/09/25 11:57:54;;;;;;;2.17;1.52;;;21.50;53.40;;;;;;20822041;28;20044;-77
2022/09/25 12:08:26;;;;;;;3.65;1.30;;;21.50;53.70;;;;;;20730958;28;20042;-78
2022/09/25 12:19:02;;;;;;;1.75;1.08;;;21.40;53.60;;;;;;20739650;28;20053;-77
2022/09/25 12:29:12;;;;;;;14.53;2.73;;;21.50;53.70;;;;;;20719163;28;20125;-75
2022/09/25 12:39:49;;;;;;;5.07;1.48;;;21.50;53.60;;;;;;20764239;28;20288;-75
2022/09/25 12:50:07;;;;;;;7.95;1.88;;;21.50;53.60;;;;;;20747853;28;20042;-74
2022/09/25 13:00:17;;;;;;;2.05;1.10;;;21.60;53.70;;;;;;20728743;28;20033;-78
2022/09/25 13:10:36;;;;;;;3.97;1.23;;;21.50;53.80;;;;;;20764982;28;20168;-77
2022/09/25 13:20:39;;;;;;;4.80;1.75;;;21.50;53.90;;;;;;20746925;28;20091;-76
2022/09/25 13:30:43;;;;;;;4.20;1.02;;;21.50;54.00;;;;;;20744742;28;20062;-76
2022/09/25 13:40:45;;;;;;;1.33;0.98;;;21.50;54.10;;;;;;20741019;28;20476;-74
2022/09/25 13:50:46;;;;;;;1.92;1.42;;;21.40;54.20;;;;;;20706889;28;20065;-81
2022/09/25 14:00:54;;;;;;;2.42;1.13;;;21.40;54.30;;;;;;20721754;28;20042;-74
2022/09/25 14:10:56;;;;;;;2.10;1.38;;;21.40;54.40;;;;;;20721327;28;20535;-75
2022/09/25 14:20:58;;;;;;;1.25;0.90;;;21.40;54.50;;;;;;20720698;28;20069;-74
2022/09/25 14:31:14;;;;;;;2.40;1.35;;;21.40;54.60;;;;;;20723495;28;20088;-75
2022/09/25 14:41:38;;;;;;;2.97;1.10;;;21.40;54.70;;;;;;20815585;28;20033;-77
2022/09/25 14:51:42;;;;;;;1.50;1.20;;;21.90;53.50;;;;;;20776558;28;20427;-74
2022/09/25 15:01:48;;;;;;;2.40;0.98;;;22.30;52.30;;;;;;20679326;28;20135;-76
2022/09/25 15:11:52;;;;;;;2.03;1.00;;;22.50;51.60;;;;;;20706231;28;20046;-77
2022/09/25 15:21:53;;;;;;;1.83;1.10;;;22.90;50.70;;;;;;20641897;28;20571;-78
2022/09/25 15:31:54;;;;;;;5.10;2.00;;;23.20;50.10;;;;;;20736572;28;20289;-78
2022/09/25 15:41:54;;;;;;;12.40;4.10;;;23.30;49.60;;;;;;20752606;28;20140;-78
2022/09/25 15:51:59;;;;;;;12.02;5.70;;;23.40;49.10;;;;;;20699665;28;20034;-77
2022/09/25 16:12:41;;;;;;;8.15;3.78;;;23.10;49.20;;;;;;20710617;28;20497;-75
2022/09/25 16:22:45;;;;;;;8.82;3.78;;;23.10;49.30;;;;;;20734933;28;20069;-75
2022/09/25 16:32:48;;;;;;;8.47;3.60;;;22.90;49.40;;;;;;20751788;28;20095;-77
2022/09/25 16:42:49;;;;;;;6.72;3.25;;;22.90;49.60;;;;;;20752587;28;20156;-78
2022/09/25 16:52:50;;;;;;;10.57;3.17;;;22.80;49.80;;;;;;20713628;28;20038;-76
2022/09/25 17:02:54;;;;;;;7.57;3.23;;;22.70;50.00;;;;;;20716795;28;20392;-79
2022/09/25 17:12:55;;;;;;;5.88;2.90;;;22.60;50.10;;;;;;20717122;28;20030;-75
2022/09/25 17:22:55;;;;;;;6.68;3.05;;;22.50;50.20;;;;;;20734448;28;20053;-76
2022/09/25 17:32:56;;;;;;;5.38;2.67;;;22.50;50.30;;;;;;20730416;28;20091;-75
2022/09/25 17:42:57;;;;;;;4.88;2.35;;;22.40;50.40;;;;;;20756582;28;20042;-76
2022/09/25 17:52:57;;;;;;;8.63;2.45;;;22.40;50.50;;;;;;20716445;28;20091;-75
2022/09/25 18:02:59;;;;;;;5.82;2.28;;;22.30;51.00;;;;;;20715251;28;20046;-77
2022/09/25 18:13:00;;;;;;;5.18;2.22;;;22.30;50.70;;;;;;20729676;28;20030;-76
2022/09/25 18:23:00;;;;;;;3.38;2.13;;;22.30;50.80;;;;;;20746408;28;20045;-78
2022/09/25 18:33:01;;;;;;;3.17;1.67;;;22.20;50.80;;;;;;20692178;28;20022;-77
2022/09/25 18:43:01;;;;;;;4.43;1.85;;;22.20;50.90;;;;;;20733497;28;20401;-76
2022/09/25 18:53:02;;;;;;;3.58;1.63;;;22.10;50.90;;;;;;20727226;28;20097;-77
2022/09/25 19:03:03;;;;;;;3.28;1.80;;;22.10;50.90;;;;;;20727259;28;20061;-76
2022/09/25 19:13:03;;;;;;;3.08;1.83;;;22.00;51.00;;;;;;20725898;28;20056;-76
2022/09/25 19:23:04;;;;;;;2.67;1.38;;;22.00;51.00;;;;;;20725891;28;20128;-75
2022/09/25 19:33:05;;;;;;;2.92;1.38;;;22.00;51.10;;;;;;20715868;28;20381;-77
2022/09/25 19:43:06;;;;;;;3.33;1.73;;;21.90;51.50;;;;;;20729093;28;20042;-76
2022/09/25 19:53:07;;;;;;;2.20;1.10;;;21.90;51.20;;;;;;20740686;28;20037;-78
2022/09/25 20:03:08;;;;;;;2.90;1.40;;;21.80;51.10;;;;;;20732550;28;20038;-76
2022/09/25 20:13:09;;;;;;;2.72;1.13;;;21.80;51.20;;;;;;20735781;28;20030;-76
2022/09/25 20:23:09;;;;;;;1.98;1.00;;;21.80;51.20;;;;;;20735064;28;20057;-75
2022/09/25 20:33:10;;;;;;;1.90;0.88;;;21.70;51.20;;;;;;20741631;28;20030;-79
2022/09/25 20:43:10;;;;;;;1.45;0.85;;;21.70;51.20;;;;;;20751705;28;20373;-76
2022/09/25 20:53:11;;;;;;;1.10;0.70;;;21.60;51.20;;;;;;20734589;28;20093;-76
2022/09/25 21:03:12;;;;;;;1.63;0.82;;;21.60;51.20;;;;;;20748990;28;20069;-76
2022/09/25 21:13:12;;;;;;;1.77;0.80;;;21.60;51.20;;;;;;20717060;28;20033;-75
2022/09/25 21:23:13;;;;;;;2.55;1.30;;;21.50;51.10;;;;;;20733434;28;20049;-75
2022/09/25 21:33:14;;;;;;;1.48;0.60;;;21.50;51.10;;;;;;20757589;28;20042;-75
2022/09/25 21:43:14;;;;;;;1.15;0.57;;;21.50;51.10;;;;;;20714782;28;20484;-75
2022/09/25 21:53:15;;;;;;;1.33;0.73;;;21.50;51.10;;;;;;20730982;28;20125;-75
2022/09/25 22:03:16;;;;;;;1.63;0.73;;;21.40;51.00;;;;;;20730826;28;20037;-75
2022/09/25 22:13:16;;;;;;;0.80;0.50;;;21.40;51.00;;;;;;20712565;28;20220;-75
2022/09/25 22:23:17;;;;;;;0.98;0.63;;;21.30;51.00;;;;;;20737291;28;20042;-76
2022/09/25 22:33:17;;;;;;;1.23;0.75;;;21.30;51.00;;;;;;20729667;28;20482;-75
2022/09/25 22:43:18;;;;;;;1.55;0.85;;;21.30;50.90;;;;;;20712081;28;20480;-75
2022/09/25 22:53:20;;;;;;;1.35;0.70;;;21.20;50.90;;;;;;20712666;28;20088;-75
2022/09/25 23:03:20;;;;;;;1.38;0.90;;;21.20;50.80;;;;;;20713829;28;20046;-76
2022/09/25 23:13:21;;;;;;;1.02;0.70;;;21.20;50.80;;;;;;20710162;28;20380;-75
2022/09/25 23:23:22;;;;;;;2.55;0.73;;;21.10;50.80;;;;;;20762194;28;20073;-75
2022/09/25 23:33:22;;;;;;;1.40;0.70;;;21.10;50.70;;;;;;20727342;28;20034;-75
2022/09/25 23:43:23;;;;;;;1.05;0.70;;;21.10;50.70;;;;;;20725202;28;20046;-75
2022/09/25 23:53:23;;;;;;;1.00;0.65;;;21.00;50.70;;;;;;20723848;28;20053;-75
